sensor_id;sensor_type;location;lat;lon;timestamp;temperature;humidity
10062;DHT22;5070;52.382;5.270;2023-11-18T00:00:20;19.30;75.70
10062;DHT22;5070;52.382;5.270;2023-11-18T00:02:48;19.30;76.30
10062;DHT22;5070;52.382;5.270;2023-11-18T00:05:16;19.30;75.40
10062;DHT22;5070;52.382;5.270;2023-11-18T00:07:44;19.30;75.40
10062;DHT22;5070;52.382;5.270;2023-11-18T00:10:13;19.20;75.20
10062;DHT22;5070;52.382;5.270;2023-11-18T00:12:41;19.20;75.10
10062;DHT22;5070;52.382;5.270;2023-11-18T00:15:09;19.20;75.10
10062;DHT22;5070;52.382;5.270;2023-11-18T00:17:38;19.20;74.90
10062;DHT22;5070;52.382;5.270;2023-11-18T00:20:07;19.20;74.90
10062;DHT22;5070;52.382;5.270;2023-11-18T00:22:39;19.20;74.90
10062;DHT22;5070;52.382;5.270;2023-11-18T00:25:08;19.20;74.80
10062;DHT22;5070;52.382;5.270;2023-11-18T00:27:39;19.20;74.80
10062;DHT22;5070;52.382;5.270;2023-11-18T00:30:07;19.20;74.60
10062;DHT22;5070;52.382;5.270;2023-11-18T00:32:37;19.20;74.50
10062;DHT22;5070;52.382;5.270;2023-11-18T00:35:07;19.20;74.40
10062;DHT22;5070;52.382;5.270;2023-11-18T00:37:37;19.20;74.40
10062;DHT22;5070;52.382;5.270;2023-11-18T00:40:06;19.10;74.20
10062;DHT22;5070;52.382;5.270;2023-11-18T00:42:35;19.20;74.20
10062;DHT22;5070;52.382;5.270;2023-11-18T00:45:06;19.10;74.10
10062;DHT22;5070;52.382;5.270;2023-11-18T00:47:35;19.10;74.10
10062;DHT22;5070;52.382;5.270;2023-11-18T00:50:04;19.10;74.00
10062;DHT22;5070;52.382;5.270;2023-11-18T00:52:34;19.10;73.90
10062;DHT22;5070;52.382;5.270;2023-11-18T00:55:06;19.10;73.90
10062;DHT22;5070;52.382;5.270;2023-11-18T00:57:34;19.10;73.90
10062;DHT22;5070;52.382;5.270;2023-11-18T01:00:03;19.10;73.90
10062;DHT22;5070;52.382;5.270;2023-11-18T01:02:32;19.10;74.10
10062;DHT22;5070;52.382;5.270;2023-11-18T01:05:00;19.10;73.80
10062;DHT22;5070;52.382;5.270;2023-11-18T01:07:28;19.10;74.40
10062;DHT22;5070;52.382;5.270;2023-11-18T01:09:56;19.10;74.00
10062;DHT22;5070;52.382;5.270;2023-11-18T01:12:24;19.10;73.80
10062;DHT22;5070;52.382;5.270;2023-11-18T01:14:53;19.10;73.70
10062;DHT22;5070;52.382;5.270;2023-11-18T01:17:21;19.00;73.70
10062;DHT22;5070;52.382;5.270;2023-11-18T01:19:52;19.10;73.80
10062;DHT22;5070;52.382;5.270;2023-11-18T01:22:20;19.10;73.70
10062;DHT22;5070;52.382;5.270;2023-11-18T01:24:48;19.10;73.60
10062;DHT22;5070;52.382;5.270;2023-11-18T01:27:17;19.00;73.50
10062;DHT22;5070;52.382;5.270;2023-11-18T01:29:46;19.00;73.50
10062;DHT22;5070;52.382;5.270;2023-11-18T01:32:14;19.00;73.50
10062;DHT22;5070;52.382;5.270;2023-11-18T01:34:44;19.00;73.60
10062;DHT22;5070;52.382;5.270;2023-11-18T01:37:18;19.00;73.60
10062;DHT22;5070;52.382;5.270;2023-11-18T01:39:48;19.00;73.60
10062;DHT22;5070;52.382;5.270;2023-11-18T01:42:16;19.00;73.70
10062;DHT22;5070;52.382;5.270;2023-11-18T01:44:44;19.00;73.60
10062;DHT22;5070;52.382;5.270;2023-11-18T01:47:12;19.00;73.60
10062;DHT22;5070;52.382;5.270;2023-11-18T01:49:41;19.00;73.60
10062;DHT22;5070;52.382;5.270;2023-11-18T01:52:10;19.00;73.60
10062;DHT22;5070;52.382;5.270;2023-11-18T01:54:41;18.90;73.50
10062;DHT22;5070;52.382;5.270;2023-11-18T01:57:11;18.90;73.40
10062;DHT22;5070;52.382;5.270;2023-11-18T01:59:40;18.90;73.40
10062;DHT22;5070;52.382;5.270;2023-11-18T02:02:08;19.00;73.40
10062;DHT22;5070;52.382;5.270;2023-11-18T02:04:38;18.90;73.40
10062;DHT22;5070;52.382;5.270;2023-11-18T02:07:06;18.90;73.30
10062;DHT22;5070;52.382;5.270;2023-11-18T02:09:36;18.90;73.40
10062;DHT22;5070;52.382;5.270;2023-11-18T02:12:12;18.90;73.40
10062;DHT22;5070;52.382;5.270;2023-11-18T02:14:43;18.90;73.40
10062;DHT22;5070;52.382;5.270;2023-11-18T02:17:14;18.90;73.30
10062;DHT22;5070;52.382;5.270;2023-11-18T02:19:42;18.90;73.30
10062;DHT22;5070;52.382;5.270;2023-11-18T02:22:11;18.90;73.20
10062;DHT22;5070;52.382;5.270;2023-11-18T02:24:40;18.90;73.20
10062;DHT22;5070;52.382;5.270;2023-11-18T02:27:10;18.90;73.10
10062;DHT22;5070;52.382;5.270;2023-11-18T02:29:43;18.90;73.10
10062;DHT22;5070;52.382;5.270;2023-11-18T02:32:18;18.90;73.20
10062;DHT22;5070;52.382;5.270;2023-11-18T02:34:56;18.90;73.00
10062;DHT22;5070;52.382;5.270;2023-11-18T02:37:25;18.90;72.90
10062;DHT22;5070;52.382;5.270;2023-11-18T02:40:03;18.90;72.90
10062;DHT22;5070;52.382;5.270;2023-11-18T02:42:36;18.90;72.90
10062;DHT22;5070;52.382;5.270;2023-11-18T02:45:07;18.80;72.90
10062;DHT22;5070;52.382;5.270;2023-11-18T02:47:39;18.80;72.70
10062;DHT22;5070;52.382;5.270;2023-11-18T02:50:08;18.80;72.70
10062;DHT22;5070;52.382;5.270;2023-11-18T02:52:37;18.80;72.60
10062;DHT22;5070;52.382;5.270;2023-11-18T02:55:06;18.80;72.70
10062;DHT22;5070;52.382;5.270;2023-11-18T02:57:37;18.80;72.80
10062;DHT22;5070;52.382;5.270;2023-11-18T03:00:06;18.80;72.70
10062;DHT22;5070;52.382;5.270;2023-11-18T03:02:38;18.80;72.60
10062;DHT22;5070;52.382;5.270;2023-11-18T03:05:07;18.80;72.60
10062;DHT22;5070;52.382;5.270;2023-11-18T03:07:38;18.80;72.50
10062;DHT22;5070;52.382;5.270;2023-11-18T03:10:07;18.80;72.50
10062;DHT22;5070;52.382;5.270;2023-11-18T03:12:40;18.80;72.60
10062;DHT22;5070;52.382;5.270;2023-11-18T03:15:09;18.80;72.50
10062;DHT22;5070;52.382;5.270;2023-11-18T03:17:38;18.80;72.50
10062;DHT22;5070;52.382;5.270;2023-11-18T03:20:07;18.80;72.50
10062;DHT22;5070;52.382;5.270;2023-11-18T03:22:36;18.80;72.40
10062;DHT22;5070;52.382;5.270;2023-11-18T03:25:05;18.80;72.30
10062;DHT22;5070;52.382;5.270;2023-11-18T03:27:34;18.80;72.40
10062;DHT22;5070;52.382;5.270;2023-11-18T03:30:06;18.70;72.40
10062;DHT22;5070;52.382;5.270;2023-11-18T03:32:36;18.70;72.40
10062;DHT22;5070;52.382;5.270;2023-11-18T03:35:06;18.70;72.40
10062;DHT22;5070;52.382;5.270;2023-11-18T03:37:36;18.70;72.40
10062;DHT22;5070;52.382;5.270;2023-11-18T03:40:07;18.70;72.40
10062;DHT22;5070;52.382;5.270;2023-11-18T03:42:35;18.70;72.40
10062;DHT22;5070;52.382;5.270;2023-11-18T03:45:06;18.70;72.40
10062;DHT22;5070;52.382;5.270;2023-11-18T03:47:34;18.70;72.40
10062;DHT22;5070;52.382;5.270;2023-11-18T03:50:02;18.70;72.30
10062;DHT22;5070;52.382;5.270;2023-11-18T03:52:30;18.70;72.40
10062;DHT22;5070;52.382;5.270;2023-11-18T03:54:58;18.70;72.40
10062;DHT22;5070;52.382;5.270;2023-11-18T03:57:26;18.70;72.50
10062;DHT22;5070;52.382;5.270;2023-11-18T03:59:54;18.70;72.50
10062;DHT22;5070;52.382;5.270;2023-11-18T04:02:24;18.70;72.50
10062;DHT22;5070;52.382;5.270;2023-11-18T04:04:52;18.70;72.50
10062;DHT22;5070;52.382;5.270;2023-11-18T04:07:20;18.70;72.50
10062;DHT22;5070;52.382;5.270;2023-11-18T04:09:48;18.60;72.40
10062;DHT22;5070;52.382;5.270;2023-11-18T04:12:16;18.70;72.40
10062;DHT22;5070;52.382;5.270;2023-11-18T04:14:44;18.60;72.50
10062;DHT22;5070;52.382;5.270;2023-11-18T04:17:12;18.60;72.40
10062;DHT22;5070;52.382;5.270;2023-11-18T04:19:41;18.60;72.50
10062;DHT22;5070;52.382;5.270;2023-11-18T04:22:09;18.60;72.50
10062;DHT22;5070;52.382;5.270;2023-11-18T04:24:37;18.60;72.40
10062;DHT22;5070;52.382;5.270;2023-11-18T04:27:06;18.60;72.50
10062;DHT22;5070;52.382;5.270;2023-11-18T04:29:34;18.60;72.60
10062;DHT22;5070;52.382;5.270;2023-11-18T04:32:04;18.60;72.60
10062;DHT22;5070;52.382;5.270;2023-11-18T04:34:35;18.60;72.70
10062;DHT22;5070;52.382;5.270;2023-11-18T04:37:04;18.60;72.50
10062;DHT22;5070;52.382;5.270;2023-11-18T04:39:33;18.60;72.40
10062;DHT22;5070;52.382;5.270;2023-11-18T04:42:01;18.60;72.70
10062;DHT22;5070;52.382;5.270;2023-11-18T04:44:29;18.60;72.80
10062;DHT22;5070;52.382;5.270;2023-11-18T04:46:58;18.60;73.00
10062;DHT22;5070;52.382;5.270;2023-11-18T04:49:26;18.60;72.80
10062;DHT22;5070;52.382;5.270;2023-11-18T04:51:54;18.60;72.70
10062;DHT22;5070;52.382;5.270;2023-11-18T04:54:23;18.50;72.70
10062;DHT22;5070;52.382;5.270;2023-11-18T04:56:51;18.60;72.60
10062;DHT22;5070;52.382;5.270;2023-11-18T04:59:22;18.50;72.70
10062;DHT22;5070;52.382;5.270;2023-11-18T05:01:50;18.50;72.60
10062;DHT22;5070;52.382;5.270;2023-11-18T05:04:20;18.50;72.90
10062;DHT22;5070;52.382;5.270;2023-11-18T05:06:48;18.50;72.70
10062;DHT22;5070;52.382;5.270;2023-11-18T05:09:16;18.50;72.60
10062;DHT22;5070;52.382;5.270;2023-11-18T05:11:46;18.50;72.90
10062;DHT22;5070;52.382;5.270;2023-11-18T05:14:14;18.50;72.90
10062;DHT22;5070;52.382;5.270;2023-11-18T05:16:43;18.50;73.10
10062;DHT22;5070;52.382;5.270;2023-11-18T05:19:11;18.50;73.00
10062;DHT22;5070;52.382;5.270;2023-11-18T05:21:39;18.50;73.20
10062;DHT22;5070;52.382;5.270;2023-11-18T05:24:08;18.50;73.20
10062;DHT22;5070;52.382;5.270;2023-11-18T05:26:36;18.50;73.00
10062;DHT22;5070;52.382;5.270;2023-11-18T05:29:05;18.50;73.10
10062;DHT22;5070;52.382;5.270;2023-11-18T05:31:33;18.50;73.20
10062;DHT22;5070;52.382;5.270;2023-11-18T05:34:01;18.50;72.90
10062;DHT22;5070;52.382;5.270;2023-11-18T05:36:30;18.50;72.80
10062;DHT22;5070;52.382;5.270;2023-11-18T05:39:04;18.50;72.80
10062;DHT22;5070;52.382;5.270;2023-11-18T05:41:33;18.50;72.70
10062;DHT22;5070;52.382;5.270;2023-11-18T05:44:02;18.50;72.60
10062;DHT22;5070;52.382;5.270;2023-11-18T05:46:31;18.50;72.70
10062;DHT22;5070;52.382;5.270;2023-11-18T05:49:02;18.40;72.60
10062;DHT22;5070;52.382;5.270;2023-11-18T05:51:32;18.40;72.60
10062;DHT22;5070;52.382;5.270;2023-11-18T05:54:00;18.40;72.80
10062;DHT22;5070;52.382;5.270;2023-11-18T05:56:28;18.40;72.90
10062;DHT22;5070;52.382;5.270;2023-11-18T05:58:56;18.40;72.80
10062;DHT22;5070;52.382;5.270;2023-11-18T06:01:25;18.40;72.70
10062;DHT22;5070;52.382;5.270;2023-11-18T06:03:55;18.40;72.90
10062;DHT22;5070;52.382;5.270;2023-11-18T06:06:23;18.40;72.70
10062;DHT22;5070;52.382;5.270;2023-11-18T06:08:52;18.40;72.60
10062;DHT22;5070;52.382;5.270;2023-11-18T06:11:20;18.40;73.00
10062;DHT22;5070;52.382;5.270;2023-11-18T06:13:51;18.40;72.90
10062;DHT22;5070;52.382;5.270;2023-11-18T06:16:21;18.40;72.90
10062;DHT22;5070;52.382;5.270;2023-11-18T06:18:51;18.40;72.70
10062;DHT22;5070;52.382;5.270;2023-11-18T06:21:22;18.30;72.50
10062;DHT22;5070;52.382;5.270;2023-11-18T06:23:54;18.40;72.70
10062;DHT22;5070;52.382;5.270;2023-11-18T06:26:22;18.30;73.10
10062;DHT22;5070;52.382;5.270;2023-11-18T06:28:51;18.30;73.70
10062;DHT22;5070;52.382;5.270;2023-11-18T06:31:19;18.30;73.70
10062;DHT22;5070;52.382;5.270;2023-11-18T06:33:48;18.30;74.00
10062;DHT22;5070;52.382;5.270;2023-11-18T06:36:20;18.30;73.90
10062;DHT22;5070;52.382;5.270;2023-11-18T06:38:50;18.30;73.60
10062;DHT22;5070;52.382;5.270;2023-11-18T06:41:19;18.30;73.00
10062;DHT22;5070;52.382;5.270;2023-11-18T06:43:50;18.30;73.00
10062;DHT22;5070;52.382;5.270;2023-11-18T06:46:25;18.30;73.60
10062;DHT22;5070;52.382;5.270;2023-11-18T06:48:56;18.30;74.10
10062;DHT22;5070;52.382;5.270;2023-11-18T06:51:27;18.30;73.90
10062;DHT22;5070;52.382;5.270;2023-11-18T06:53:55;18.30;74.40
10062;DHT22;5070;52.382;5.270;2023-11-18T06:56:23;18.30;74.10
10062;DHT22;5070;52.382;5.270;2023-11-18T06:58:51;18.30;74.00
10062;DHT22;5070;52.382;5.270;2023-11-18T07:01:19;18.30;73.80
10062;DHT22;5070;52.382;5.270;2023-11-18T07:03:48;18.30;74.10
10062;DHT22;5070;52.382;5.270;2023-11-18T07:06:20;18.30;73.90
10062;DHT22;5070;52.382;5.270;2023-11-18T07:08:52;18.30;74.20
10062;DHT22;5070;52.382;5.270;2023-11-18T07:11:21;18.40;74.10
10062;DHT22;5070;52.382;5.270;2023-11-18T07:13:49;18.40;74.30
10062;DHT22;5070;52.382;5.270;2023-11-18T07:16:23;18.40;74.00
10062;DHT22;5070;52.382;5.270;2023-11-18T07:18:52;18.40;74.30
10062;DHT22;5070;52.382;5.270;2023-11-18T07:21:20;18.40;74.60
10062;DHT22;5070;52.382;5.270;2023-11-18T07:23:50;18.40;74.50
10062;DHT22;5070;52.382;5.270;2023-11-18T07:26:18;18.40;74.50
10062;DHT22;5070;52.382;5.270;2023-11-18T07:28:46;18.50;75.10
10062;DHT22;5070;52.382;5.270;2023-11-18T07:31:14;18.50;75.10
10062;DHT22;5070;52.382;5.270;2023-11-18T07:33:45;18.50;75.00
10062;DHT22;5070;52.382;5.270;2023-11-18T07:36:15;18.50;75.10
10062;DHT22;5070;52.382;5.270;2023-11-18T07:38:44;18.50;75.40
10062;DHT22;5070;52.382;5.270;2023-11-18T07:41:13;18.60;75.90
10062;DHT22;5070;52.382;5.270;2023-11-18T07:43:50;18.60;76.20
10062;DHT22;5070;52.382;5.270;2023-11-18T07:46:19;18.60;76.90
10062;DHT22;5070;52.382;5.270;2023-11-18T07:48:49;18.70;76.80
10062;DHT22;5070;52.382;5.270;2023-11-18T07:51:18;18.70;76.50
10062;DHT22;5070;52.382;5.270;2023-11-18T07:53:48;18.70;76.20
10062;DHT22;5070;52.382;5.270;2023-11-18T07:56:17;18.70;76.20
10062;DHT22;5070;52.382;5.270;2023-11-18T07:58:45;18.80;76.40
10062;DHT22;5070;52.382;5.270;2023-11-18T08:01:14;18.70;76.40
10062;DHT22;5070;52.382;5.270;2023-11-18T08:03:43;18.70;76.30
10062;DHT22;5070;52.382;5.270;2023-11-18T08:06:12;18.70;76.40
10062;DHT22;5070;52.382;5.270;2023-11-18T08:08:40;18.70;76.30
10062;DHT22;5070;52.382;5.270;2023-11-18T08:11:10;18.70;76.30
10062;DHT22;5070;52.382;5.270;2023-11-18T08:13:40;18.70;76.20
10062;DHT22;5070;52.382;5.270;2023-11-18T08:16:08;18.80;76.10
10062;DHT22;5070;52.382;5.270;2023-11-18T08:18:36;18.80;76.80
10062;DHT22;5070;52.382;5.270;2023-11-18T08:21:05;18.80;76.00
10062;DHT22;5070;52.382;5.270;2023-11-18T08:23:34;18.80;76.00
10062;DHT22;5070;52.382;5.270;2023-11-18T08:26:03;18.80;75.90
10062;DHT22;5070;52.382;5.270;2023-11-18T08:28:32;18.80;75.80
10062;DHT22;5070;52.382;5.270;2023-11-18T08:31:01;18.80;75.70
10062;DHT22;5070;52.382;5.270;2023-11-18T08:33:29;18.80;76.20
10062;DHT22;5070;52.382;5.270;2023-11-18T08:35:58;18.80;75.40
10062;DHT22;5070;52.382;5.270;2023-11-18T08:38:28;18.80;75.40
10062;DHT22;5070;52.382;5.270;2023-11-18T08:40:56;18.80;75.30
10062;DHT22;5070;52.382;5.270;2023-11-18T08:43:24;18.80;75.40
10062;DHT22;5070;52.382;5.270;2023-11-18T08:45:52;18.70;75.40
10062;DHT22;5070;52.382;5.270;2023-11-18T08:48:22;18.70;75.80
10062;DHT22;5070;52.382;5.270;2023-11-18T08:50:50;18.70;76.80
10062;DHT22;5070;52.382;5.270;2023-11-18T08:53:18;18.80;76.60
10062;DHT22;5070;52.382;5.270;2023-11-18T08:55:53;18.80;76.00
10062;DHT22;5070;52.382;5.270;2023-11-18T08:58:22;18.80;76.10
10062;DHT22;5070;52.382;5.270;2023-11-18T09:00:57;18.80;75.70
10062;DHT22;5070;52.382;5.270;2023-11-18T09:03:34;18.80;76.00
10062;DHT22;5070;52.382;5.270;2023-11-18T09:06:05;18.80;76.20
10062;DHT22;5070;52.382;5.270;2023-11-18T09:08:45;18.80;76.50
10062;DHT22;5070;52.382;5.270;2023-11-18T09:11:20;18.80;76.50
10062;DHT22;5070;52.382;5.270;2023-11-18T09:13:50;18.80;76.10
10062;DHT22;5070;52.382;5.270;2023-11-18T09:16:20;18.80;76.50
10062;DHT22;5070;52.382;5.270;2023-11-18T09:18:50;18.80;76.40
10062;DHT22;5070;52.382;5.270;2023-11-18T09:21:19;18.80;76.40
10062;DHT22;5070;52.382;5.270;2023-11-18T09:23:52;18.80;76.30
10062;DHT22;5070;52.382;5.270;2023-11-18T09:26:20;18.80;76.40
10062;DHT22;5070;52.382;5.270;2023-11-18T09:28:48;18.80;76.20
10062;DHT22;5070;52.382;5.270;2023-11-18T09:31:19;18.70;76.00
10062;DHT22;5070;52.382;5.270;2023-11-18T09:33:49;18.80;76.20
10062;DHT22;5070;52.382;5.270;2023-11-18T09:36:20;18.70;75.90
10062;DHT22;5070;52.382;5.270;2023-11-18T09:38:49;18.80;75.90
10062;DHT22;5070;52.382;5.270;2023-11-18T09:41:18;18.80;76.00
10062;DHT22;5070;52.382;5.270;2023-11-18T09:43:46;18.80;75.90
10062;DHT22;5070;52.382;5.270;2023-11-18T09:46:23;18.70;76.00
10062;DHT22;5070;52.382;5.270;2023-11-18T09:49:02;18.70;76.30
10062;DHT22;5070;52.382;5.270;2023-11-18T09:51:42;18.70;76.60
10062;DHT22;5070;52.382;5.270;2023-11-18T09:54:19;18.80;76.70
10062;DHT22;5070;52.382;5.270;2023-11-18T09:56:57;18.80;77.00
10062;DHT22;5070;52.382;5.270;2023-11-18T09:59:42;18.80;77.00
10062;DHT22;5070;52.382;5.270;2023-11-18T10:02:12;18.80;76.90
10062;DHT22;5070;52.382;5.270;2023-11-18T10:04:42;18.80;77.50
10062;DHT22;5070;52.382;5.270;2023-11-18T10:07:13;18.90;77.90
10062;DHT22;5070;52.382;5.270;2023-11-18T10:09:43;18.90;78.20
10062;DHT22;5070;52.382;5.270;2023-11-18T10:12:12;18.90;77.50
10062;DHT22;5070;52.382;5.270;2023-11-18T10:14:43;18.90;77.30
10062;DHT22;5070;52.382;5.270;2023-11-18T10:17:11;18.90;77.20
10062;DHT22;5070;52.382;5.270;2023-11-18T10:19:53;18.90;77.00
10062;DHT22;5070;52.382;5.270;2023-11-18T10:22:24;18.90;76.70
10062;DHT22;5070;52.382;5.270;2023-11-18T10:24:53;18.90;76.50
10062;DHT22;5070;52.382;5.270;2023-11-18T10:27:24;18.90;76.40
10062;DHT22;5070;52.382;5.270;2023-11-18T10:29:55;18.90;76.70
10062;DHT22;5070;52.382;5.270;2023-11-18T10:32:23;18.90;76.30
10062;DHT22;5070;52.382;5.270;2023-11-18T10:34:57;18.90;76.30
10062;DHT22;5070;52.382;5.270;2023-11-18T10:37:25;18.90;76.90
10062;DHT22;5070;52.382;5.270;2023-11-18T10:39:59;18.90;77.20
10062;DHT22;5070;52.382;5.270;2023-11-18T10:42:32;18.80;76.70
10062;DHT22;5070;52.382;5.270;2023-11-18T10:45:00;18.80;77.30
10062;DHT22;5070;52.382;5.270;2023-11-18T10:47:32;18.80;77.20
10062;DHT22;5070;52.382;5.270;2023-11-18T10:50:04;18.80;77.40
10062;DHT22;5070;52.382;5.270;2023-11-18T10:52:36;18.80;77.40
10062;DHT22;5070;52.382;5.270;2023-11-18T10:55:08;18.80;77.70
10062;DHT22;5070;52.382;5.270;2023-11-18T10:57:40;18.80;77.30
10062;DHT22;5070;52.382;5.270;2023-11-18T11:00:11;18.70;77.40
10062;DHT22;5070;52.382;5.270;2023-11-18T11:02:41;18.80;77.10
10062;DHT22;5070;52.382;5.270;2023-11-18T11:05:11;18.80;77.00
10062;DHT22;5070;52.382;5.270;2023-11-18T11:07:48;18.70;77.00
10062;DHT22;5070;52.382;5.270;2023-11-18T11:10:16;18.70;76.80
10062;DHT22;5070;52.382;5.270;2023-11-18T11:12:54;18.80;77.90
10062;DHT22;5070;52.382;5.270;2023-11-18T11:15:28;18.80;77.70
10062;DHT22;5070;52.382;5.270;2023-11-18T11:18:19;18.70;77.30
10062;DHT22;5070;52.382;5.270;2023-11-18T11:20:59;18.80;77.70
10062;DHT22;5070;52.382;5.270;2023-11-18T11:23:37;18.80;78.00
10062;DHT22;5070;52.382;5.270;2023-11-18T11:26:19;18.80;78.10
10062;DHT22;5070;52.382;5.270;2023-11-18T11:29:07;18.80;78.20
10062;DHT22;5070;52.382;5.270;2023-11-18T11:31:39;18.80;78.20
10062;DHT22;5070;52.382;5.270;2023-11-18T11:34:16;18.90;78.20
10062;DHT22;5070;52.382;5.270;2023-11-18T11:36:48;18.80;78.10
10062;DHT22;5070;52.382;5.270;2023-11-18T11:39:18;18.90;78.20
10062;DHT22;5070;52.382;5.270;2023-11-18T11:41:53;18.90;78.60
10062;DHT22;5070;52.382;5.270;2023-11-18T11:44:23;18.80;80.20
10062;DHT22;5070;52.382;5.270;2023-11-18T11:46:57;18.90;80.20
10062;DHT22;5070;52.382;5.270;2023-11-18T11:49:32;18.90;78.70
10062;DHT22;5070;52.382;5.270;2023-11-18T11:52:13;18.90;78.30
10062;DHT22;5070;52.382;5.270;2023-11-18T11:54:48;18.90;79.00
10062;DHT22;5070;52.382;5.270;2023-11-18T11:57:23;18.90;79.00
10062;DHT22;5070;52.382;5.270;2023-11-18T11:59:55;18.90;79.10
10062;DHT22;5070;52.382;5.270;2023-11-18T12:02:26;18.90;78.60
10062;DHT22;5070;52.382;5.270;2023-11-18T12:04:56;18.90;78.40
10062;DHT22;5070;52.382;5.270;2023-11-18T12:07:27;18.90;78.30
10062;DHT22;5070;52.382;5.270;2023-11-18T12:09:59;18.90;78.60
10062;DHT22;5070;52.382;5.270;2023-11-18T12:12:28;18.90;78.70
10062;DHT22;5070;52.382;5.270;2023-11-18T12:14:59;19.00;78.50
10062;DHT22;5070;52.382;5.270;2023-11-18T12:18:11;19.00;78.20
10062;DHT22;5070;52.382;5.270;2023-11-18T12:20:44;19.00;79.30
10062;DHT22;5070;52.382;5.270;2023-11-18T12:23:16;18.90;79.00
10062;DHT22;5070;52.382;5.270;2023-11-18T12:25:45;18.90;78.90
10062;DHT22;5070;52.382;5.270;2023-11-18T12:28:16;18.90;78.90
10062;DHT22;5070;52.382;5.270;2023-11-18T12:30:48;18.90;78.90
10062;DHT22;5070;52.382;5.270;2023-11-18T12:34:00;18.90;78.50
10062;DHT22;5070;52.382;5.270;2023-11-18T12:37:00;18.90;78.50
10062;DHT22;5070;52.382;5.270;2023-11-18T12:40:09;18.90;79.60
10062;DHT22;5070;52.382;5.270;2023-11-18T12:43:01;18.90;79.20
10062;DHT22;5070;52.382;5.270;2023-11-18T12:46:11;19.00;79.90
10062;DHT22;5070;52.382;5.270;2023-11-18T12:48:49;18.90;79.00
10062;DHT22;5070;52.382;5.270;2023-11-18T12:51:18;18.90;79.00
10062;DHT22;5070;52.382;5.270;2023-11-18T12:53:49;18.90;79.40
10062;DHT22;5070;52.382;5.270;2023-11-18T12:56:21;18.90;79.40
10062;DHT22;5070;52.382;5.270;2023-11-18T12:58:51;18.90;78.90
10062;DHT22;5070;52.382;5.270;2023-11-18T13:01:21;18.90;79.30
10062;DHT22;5070;52.382;5.270;2023-11-18T13:03:49;18.90;78.50
10062;DHT22;5070;52.382;5.270;2023-11-18T13:06:19;18.90;78.50
10062;DHT22;5070;52.382;5.270;2023-11-18T13:08:51;18.90;78.80
10062;DHT22;5070;52.382;5.270;2023-11-18T13:11:18;18.90;78.30
10062;DHT22;5070;52.382;5.270;2023-11-18T13:13:48;18.90;78.30
10062;DHT22;5070;52.382;5.270;2023-11-18T13:16:16;18.90;78.80
10062;DHT22;5070;52.382;5.270;2023-11-18T13:18:45;18.90;78.20
10062;DHT22;5070;52.382;5.270;2023-11-18T13:21:16;18.90;78.20
10062;DHT22;5070;52.382;5.270;2023-11-18T13:23:46;18.90;78.10
10062;DHT22;5070;52.382;5.270;2023-11-18T13:26:15;18.90;78.90
10062;DHT22;5070;52.382;5.270;2023-11-18T13:28:43;18.90;78.80
10062;DHT22;5070;52.382;5.270;2023-11-18T13:31:12;18.90;78.20
10062;DHT22;5070;52.382;5.270;2023-11-18T13:33:43;18.90;78.40
10062;DHT22;5070;52.382;5.270;2023-11-18T13:36:12;18.90;79.50
10062;DHT22;5070;52.382;5.270;2023-11-18T13:38:40;18.90;79.50
10062;DHT22;5070;52.382;5.270;2023-11-18T13:41:08;18.90;79.90
10062;DHT22;5070;52.382;5.270;2023-11-18T13:43:41;18.90;79.60
10062;DHT22;5070;52.382;5.270;2023-11-18T13:46:14;18.90;80.00
10062;DHT22;5070;52.382;5.270;2023-11-18T13:48:47;19.00;80.20
10062;DHT22;5070;52.382;5.270;2023-11-18T13:51:16;19.00;80.40
10062;DHT22;5070;52.382;5.270;2023-11-18T13:53:47;19.00;80.90
10062;DHT22;5070;52.382;5.270;2023-11-18T13:56:15;19.00;79.80
10062;DHT22;5070;52.382;5.270;2023-11-18T13:58:46;19.00;80.60
10062;DHT22;5070;52.382;5.270;2023-11-18T14:01:18;19.00;81.30
10062;DHT22;5070;52.382;5.270;2023-11-18T14:03:46;19.00;80.80
10062;DHT22;5070;52.382;5.270;2023-11-18T14:06:14;19.00;81.70
10062;DHT22;5070;52.382;5.270;2023-11-18T14:08:44;19.00;81.80
10062;DHT22;5070;52.382;5.270;2023-11-18T14:11:12;19.10;81.90
10062;DHT22;5070;52.382;5.270;2023-11-18T14:13:43;19.00;82.00
10062;DHT22;5070;52.382;5.270;2023-11-18T14:16:11;19.10;81.60
10062;DHT22;5070;52.382;5.270;2023-11-18T14:18:41;19.00;81.50
10062;DHT22;5070;52.382;5.270;2023-11-18T14:21:10;19.10;81.60
10062;DHT22;5070;52.382;5.270;2023-11-18T14:23:40;19.10;81.60
10062;DHT22;5070;52.382;5.270;2023-11-18T14:26:11;19.10;81.10
10062;DHT22;5070;52.382;5.270;2023-11-18T14:28:40;19.10;81.30
10062;DHT22;5070;52.382;5.270;2023-11-18T14:31:09;19.10;81.30
10062;DHT22;5070;52.382;5.270;2023-11-18T14:33:38;19.10;81.10
10062;DHT22;5070;52.382;5.270;2023-11-18T14:36:08;19.10;80.90
10062;DHT22;5070;52.382;5.270;2023-11-18T14:38:36;19.10;81.00
10062;DHT22;5070;52.382;5.270;2023-11-18T14:41:04;19.10;80.80
10062;DHT22;5070;52.382;5.270;2023-11-18T14:43:34;19.10;80.90
10062;DHT22;5070;52.382;5.270;2023-11-18T14:46:02;19.10;80.90
10062;DHT22;5070;52.382;5.270;2023-11-18T14:48:31;19.10;80.80
10062;DHT22;5070;52.382;5.270;2023-11-18T14:50:59;19.10;80.50
10062;DHT22;5070;52.382;5.270;2023-11-18T14:53:29;19.10;80.60
10062;DHT22;5070;52.382;5.270;2023-11-18T14:55:57;19.10;80.50
10062;DHT22;5070;52.382;5.270;2023-11-18T14:58:25;19.10;80.70
10062;DHT22;5070;52.382;5.270;2023-11-18T15:00:53;19.10;80.60
10062;DHT22;5070;52.382;5.270;2023-11-18T15:03:23;19.10;80.90
10062;DHT22;5070;52.382;5.270;2023-11-18T15:05:51;19.10;80.50
10062;DHT22;5070;52.382;5.270;2023-11-18T15:08:19;19.10;80.60
10062;DHT22;5070;52.382;5.270;2023-11-18T15:10:52;19.10;80.60
10062;DHT22;5070;52.382;5.270;2023-11-18T15:13:20;19.10;80.50
10062;DHT22;5070;52.382;5.270;2023-11-18T15:15:48;19.10;80.50
10062;DHT22;5070;52.382;5.270;2023-11-18T15:18:16;19.10;80.50
10062;DHT22;5070;52.382;5.270;2023-11-18T15:20:46;19.10;80.50
10062;DHT22;5070;52.382;5.270;2023-11-18T15:23:16;19.10;80.40
10062;DHT22;5070;52.382;5.270;2023-11-18T15:25:45;19.10;80.40
10062;DHT22;5070;52.382;5.270;2023-11-18T15:28:14;19.10;80.40
10062;DHT22;5070;52.382;5.270;2023-11-18T15:30:43;19.10;80.50
10062;DHT22;5070;52.382;5.270;2023-11-18T15:33:12;19.10;80.20
10062;DHT22;5070;52.382;5.270;2023-11-18T15:35:42;19.10;80.20
10062;DHT22;5070;52.382;5.270;2023-11-18T15:38:13;19.10;80.20
10062;DHT22;5070;52.382;5.270;2023-11-18T15:40:44;19.10;80.40
10062;DHT22;5070;52.382;5.270;2023-11-18T15:43:14;19.10;80.50
10062;DHT22;5070;52.382;5.270;2023-11-18T15:45:42;19.10;80.40
10062;DHT22;5070;52.382;5.270;2023-11-18T15:48:11;19.10;80.20
10062;DHT22;5070;52.382;5.270;2023-11-18T15:50:41;19.10;80.50
10062;DHT22;5070;52.382;5.270;2023-11-18T15:53:09;19.10;80.90
10062;DHT22;5070;52.382;5.270;2023-11-18T15:55:41;19.10;80.80
10062;DHT22;5070;52.382;5.270;2023-11-18T15:58:10;19.10;80.70
10062;DHT22;5070;52.382;5.270;2023-11-18T16:00:41;19.10;81.10
10062;DHT22;5070;52.382;5.270;2023-11-18T16:03:10;19.20;81.40
10062;DHT22;5070;52.382;5.270;2023-11-18T16:05:39;19.20;82.80